Harlan, IA

10:36 PM CST on December 10, 2016 (GMT -0600)
Harlan Municipal | | Change Station

Elev 1230 ft 41.58 °N, 95.34 °W | Updated 21 minutes ago

Overcast
Overcast
28 °F
Feels Like 18 °F
N
12
Wind Variable Wind from SE

Today
High -- | Low -- °F
--% Chance of Precip.
Yesterday
High -- | Low -- °F
Precip. -- in
Pressure 29.98 in
Visibility 10.0 miles
Clouds Overcast 7500 ft
Windchill 18 °F
Dew Point 21 °F
Humidity 74%
Rainfall 0.00 in
Snow Depth Not available.
7:37 AM 4:51 PM
Waxing Gibbous, 89% visible
METAR KHNR 110415Z AUTO 14010KT 10SM OVC075 M02/M06 A2998 RMK AO2
Pressure 29.98 in
Visibility 10.0 miles
Clouds Overcast 7500 ft
Windchill 18 °F
Dew Point 21 °F
Humidity 74%
Rainfall 0.00 in
Snow Depth Not available.
7:37 AM 4:51 PM
Waxing Gibbous, 89% visible
METAR KHNR 110415Z AUTO 14010KT 10SM OVC075 M02/M06 A2998 RMK AO2

10-Day Weather Forecast

Almanac

Astronomy

Dec. 10, 2016 Rise Set
Actual Time
Civil Twilight
Nautical Twilight
Astronomical Twilight
Moon
Length of Visible Light
Length of Day
Tomorrow will be .
, % of the Moon is Illuminated

Today's Extremes

State Highs State Lows

Community

WunderPhotos

Upload Photos

1,956,705 photos uploaded!

WunderBlog® & News

Nearby

Air Quality

  Air Quality AQ Index Pollutant
Not available.

Snow Depth

Station Depth Elevation

Earthquake Activity

City Distance Mag. Time & Date
Minimum magnitude displayed is 2.5.

Coastal Water Temperatures

Place Temperature

Stations

Nearby Weather Stations

Station Location Temp. Windchill Dew Point Humidity Wind Precip. Elev Updated Type
                   

Watches & Warnings

There are currently no watches in effect.